createdAt,value
2022-11-21T00:01:28.969Z,0.57
2022-11-21T00:03:30.673Z,0.50
2022-11-21T00:05:32.525Z,0.40
2022-11-21T00:07:33.965Z,0.55
2022-11-21T00:09:36.789Z,0.40
2022-11-21T00:11:38.238Z,0.70
2022-11-21T00:13:40.400Z,1.27
2022-11-21T00:15:42.557Z,0.98
2022-11-21T00:17:44.269Z,0.95
2022-11-21T00:19:48.069Z,1.27
2022-11-21T00:21:49.540Z,1.10
2022-11-21T00:23:52.424Z,1.00
2022-11-21T00:25:53.938Z,1.02
2022-11-21T00:27:55.512Z,1.00
2022-11-21T00:29:56.974Z,1.08
2022-11-21T00:31:58.432Z,0.80
2022-11-21T00:33:59.937Z,0.60
2022-11-21T00:36:08.260Z,0.70
2022-11-21T00:38:09.778Z,0.63
2022-11-21T00:40:11.572Z,0.93
2022-11-21T00:42:12.993Z,0.70
2022-11-21T00:44:14.409Z,0.85
2022-11-21T00:46:16.017Z,0.70
2022-11-21T00:48:17.424Z,0.55
2022-11-21T00:50:18.838Z,0.60
2022-11-21T00:52:20.385Z,0.60
2022-11-21T00:54:21.786Z,0.73
2022-11-21T00:56:23.205Z,0.82
2022-11-21T00:58:24.994Z,0.63
2022-11-21T01:00:26.938Z,0.60
2022-11-21T01:02:28.484Z,0.68
2022-11-21T01:04:33.610Z,0.50
2022-11-21T01:06:37.024Z,0.50
2022-11-21T01:08:39.860Z,0.60
2022-11-21T01:10:42.963Z,0.50
2022-11-21T01:13:07.255Z,0.52
2022-11-21T01:15:34.353Z,0.73
2022-11-21T01:18:02.576Z,0.50
2022-11-21T01:20:29.014Z,0.73
2022-11-21T01:22:43.433Z,0.55
2022-11-21T01:24:47.399Z,0.50
2022-11-21T01:27:13.386Z,0.40
2022-11-21T01:29:22.824Z,0.40
2022-11-21T01:31:37.376Z,0.45
2022-11-21T01:33:53.557Z,0.50
2022-11-21T01:36:15.845Z,0.65
2022-11-21T01:38:28.272Z,0.88
2022-11-21T01:40:49.941Z,0.80
2022-11-21T01:43:06.170Z,0.50
2022-11-21T01:45:43.579Z,0.60
2022-11-21T01:48:01.626Z,0.60
2022-11-21T01:50:07.195Z,0.63
2022-11-21T01:52:14.460Z,0.63
2022-11-21T01:54:16.213Z,0.50
2022-11-21T01:56:17.688Z,0.70
2022-11-21T01:58:19.793Z,0.50
2022-11-21T02:00:26.656Z,0.50
2022-11-21T02:02:33.745Z,0.50
2022-11-21T02:04:36.420Z,0.40
2022-11-21T02:06:38.142Z,0.80
2022-11-21T02:08:40.819Z,0.30
2022-11-21T02:10:47.677Z,0.65
2022-11-21T02:12:53.566Z,0.60
2022-11-21T02:14:55.826Z,0.65
2022-11-21T02:16:58.592Z,0.55
2022-11-21T02:19:00.283Z,0.50
2022-11-21T02:21:07.004Z,0.60
2022-11-21T02:23:08.508Z,0.70
2022-11-21T02:25:11.816Z,0.40
2022-11-21T02:27:13.244Z,0.73
2022-11-21T02:29:14.936Z,0.57
2022-11-21T02:31:16.346Z,0.60
2022-11-21T02:33:17.824Z,0.85
2022-11-21T02:35:19.592Z,0.57
2022-11-21T02:37:21.029Z,0.57
2022-11-21T02:39:28.480Z,1.00
2022-11-21T02:41:31.703Z,0.95
2022-11-21T02:43:39.325Z,0.70
2022-11-21T02:45:41.782Z,0.80
2022-11-21T02:47:43.833Z,0.60
2022-11-21T02:49:50.792Z,0.70
2022-11-21T02:51:52.255Z,0.68
2022-11-21T02:53:53.728Z,0.60
2022-11-21T02:55:55.335Z,0.68
2022-11-21T02:58:00.371Z,0.75
2022-11-21T03:00:06.295Z,0.77
2022-11-21T03:02:08.045Z,0.57
2022-11-21T03:04:09.468Z,0.90
2022-11-21T03:06:10.881Z,0.60
2022-11-21T03:08:12.534Z,0.50
2022-11-21T03:10:14.509Z,0.60
2022-11-21T03:12:16.181Z,0.63
2022-11-21T03:14:17.649Z,0.50
2022-11-21T03:16:19.121Z,0.40
2022-11-21T03:18:20.597Z,0.50
2022-11-21T03:20:22.105Z,0.60
2022-11-21T03:22:23.893Z,0.50
2022-11-21T03:24:25.527Z,0.68
2022-11-21T03:26:27.180Z,0.68
2022-11-21T03:28:28.687Z,0.63
2022-11-21T03:30:30.171Z,0.70
2022-11-21T03:32:31.616Z,0.68
2022-11-21T03:34:33.158Z,0.90
2022-11-21T03:36:34.773Z,0.80
2022-11-21T03:38:36.208Z,0.70
2022-11-21T03:40:37.646Z,0.75
2022-11-21T03:42:39.129Z,0.73
2022-11-21T03:44:40.702Z,0.75
2022-11-21T03:46:43.810Z,0.90
2022-11-21T03:48:45.323Z,0.90
2022-11-21T03:50:46.750Z,0.77
2022-11-21T03:52:48.384Z,0.98
2022-11-21T03:54:50.038Z,0.80
2022-11-21T03:56:51.600Z,0.80
2022-11-21T03:58:53.176Z,0.70
2022-11-21T04:00:54.620Z,1.02
2022-11-21T04:02:56.099Z,0.70
2022-11-21T04:04:57.573Z,0.70
2022-11-21T04:06:59.094Z,0.60
2022-11-21T04:09:00.694Z,0.60
2022-11-21T04:11:02.157Z,0.80
2022-11-21T04:13:03.694Z,0.65
2022-11-21T04:15:10.635Z,0.60
2022-11-21T04:17:16.429Z,0.52
2022-11-21T04:19:19.944Z,0.57
2022-11-21T04:21:24.637Z,0.65
2022-11-21T04:23:29.336Z,0.52
2022-11-21T04:25:33.582Z,0.52
2022-11-21T04:27:38.398Z,0.60
2022-11-21T04:29:42.897Z,0.60
2022-11-21T04:31:47.539Z,0.40
2022-11-21T04:33:51.933Z,0.60
2022-11-21T04:35:56.271Z,0.77
2022-11-21T04:40:04.660Z,0.50
2022-11-21T04:42:08.900Z,1.00
2022-11-21T04:44:13.188Z,0.68
2022-11-21T04:46:17.185Z,0.82
2022-11-21T04:48:20.902Z,0.60
2022-11-21T04:50:25.208Z,0.88
2022-11-21T04:52:29.561Z,0.70
2022-11-21T04:54:31.609Z,0.43
2022-11-21T04:56:33.354Z,0.75
2022-11-21T04:58:34.782Z,0.50
2022-11-21T05:00:36.391Z,0.63
2022-11-21T05:02:37.881Z,0.68
2022-11-21T05:04:39.414Z,0.65
2022-11-21T05:06:40.908Z,0.40
2022-11-21T05:08:42.580Z,0.50
2022-11-21T05:11:02.440Z,0.40
2022-11-21T05:13:21.928Z,0.32
2022-11-21T05:15:25.046Z,0.40
2022-11-21T05:17:28.017Z,0.40
2022-11-21T05:19:30.057Z,0.40
2022-11-21T05:21:31.528Z,0.40
2022-11-21T05:23:33.055Z,0.40
2022-11-21T05:25:34.521Z,0.63
2022-11-21T05:27:36.317Z,0.40
2022-11-21T05:29:37.769Z,0.40
2022-11-21T05:31:39.625Z,0.43
2022-11-21T05:33:41.104Z,0.65
2022-11-21T05:35:43.594Z,0.50
2022-11-21T05:37:45.408Z,0.50
2022-11-21T05:39:46.833Z,0.50
2022-11-21T05:41:48.303Z,0.60
2022-11-21T05:43:50.160Z,0.80
2022-11-21T05:45:51.757Z,0.50
2022-11-21T05:47:53.249Z,0.68
2022-11-21T05:49:54.617Z,0.80
2022-11-21T05:51:56.096Z,0.50
2022-11-21T05:53:57.573Z,1.02
2022-11-21T05:56:06.428Z,0.80
2022-11-21T05:58:09.132Z,0.95
2022-11-21T06:00:10.908Z,0.75
2022-11-21T06:02:30.852Z,0.73
2022-11-21T06:04:32.361Z,0.80
2022-11-21T06:06:33.936Z,0.70
2022-11-21T06:08:39.577Z,0.95
2022-11-21T06:10:41.094Z,0.98
2022-11-21T06:12:42.589Z,0.90
2022-11-21T06:14:44.107Z,0.88
2022-11-21T06:16:45.768Z,1.10
2022-11-21T06:18:48.393Z,0.95
2022-11-21T06:20:50.138Z,0.80
2022-11-21T06:22:53.320Z,0.85
2022-11-21T06:24:54.959Z,0.80
2022-11-21T06:26:57.122Z,0.90
2022-11-21T06:28:58.588Z,0.60
2022-11-21T06:31:04.205Z,0.68
2022-11-21T06:33:06.469Z,0.50
2022-11-21T06:35:08.047Z,0.55
2022-11-21T06:37:09.717Z,0.70
2022-11-21T06:39:11.156Z,0.45
2022-11-21T06:41:13.814Z,0.47
2022-11-21T06:43:15.411Z,0.60
2022-11-21T06:45:16.834Z,0.40
2022-11-21T06:47:18.372Z,0.52
2022-11-21T06:49:19.941Z,0.50
2022-11-21T06:51:22.564Z,0.50
2022-11-21T06:53:24.088Z,0.43
2022-11-21T06:55:27.523Z,0.30
2022-11-21T06:57:28.976Z,0.32
2022-11-21T06:59:30.565Z,0.50
2022-11-21T07:01:32.075Z,0.40
2022-11-21T07:03:34.174Z,0.50
2022-11-21T07:05:35.677Z,0.68
2022-11-21T07:07:37.228Z,0.77
2022-11-21T07:09:38.685Z,0.60
2022-11-21T07:11:40.178Z,0.68
2022-11-21T07:13:42.923Z,0.60
2022-11-21T07:15:44.732Z,0.60
2022-11-21T07:17:46.168Z,0.50
2022-11-21T07:19:47.847Z,0.50
2022-11-21T07:21:54.802Z,0.60
2022-11-21T07:24:09.445Z,0.40
2022-11-21T07:26:25.376Z,0.50
2022-11-21T07:28:32.359Z,0.80
2022-11-21T07:30:43.058Z,1.15
2022-11-21T07:32:50.965Z,0.90
2022-11-21T07:35:01.393Z,1.52
2022-11-21T07:37:15.178Z,0.90
2022-11-21T07:39:29.338Z,1.33
2022-11-21T07:41:43.088Z,3.17
2022-11-21T07:43:54.207Z,2.10
2022-11-21T07:46:07.476Z,1.98
2022-11-21T07:48:22.679Z,1.33
2022-11-21T07:50:34.072Z,1.98
2022-11-21T07:52:45.647Z,2.50
2022-11-21T07:54:58.953Z,2.28
2022-11-21T07:57:09.648Z,2.70
2022-11-21T07:59:24.516Z,3.28
2022-11-21T08:01:28.878Z,2.63
2022-11-21T08:03:30.458Z,1.60
2022-11-21T08:05:31.957Z,2.40
2022-11-21T08:07:33.486Z,2.72
2022-11-21T08:09:38.701Z,1.70
2022-11-21T08:11:41.610Z,2.72
2022-11-21T08:13:42.996Z,2.90
2022-11-21T08:15:44.670Z,1.80
2022-11-21T08:17:46.321Z,2.78
2022-11-21T08:19:48.228Z,2.75
2022-11-21T08:21:49.686Z,2.20
2022-11-21T08:23:51.334Z,2.67
2022-11-21T08:25:52.963Z,2.85
2022-11-21T08:27:56.549Z,2.60
2022-11-21T08:29:58.039Z,2.72
2022-11-21T08:31:59.776Z,2.45
2022-11-21T08:34:01.226Z,3.83
2022-11-21T08:36:05.958Z,3.83
2022-11-21T08:38:08.104Z,4.20
2022-11-21T08:40:10.872Z,1.90
2022-11-21T08:42:12.573Z,2.97
2022-11-21T08:44:14.509Z,2.53
2022-11-21T08:46:16.883Z,3.65
2022-11-21T08:48:18.338Z,3.35
2022-11-21T08:50:20.005Z,3.05
2022-11-21T08:52:21.395Z,2.92
2022-11-21T08:54:23.619Z,3.60
2022-11-21T08:56:25.074Z,2.30
2022-11-21T08:58:26.502Z,3.22
2022-11-21T09:00:28.032Z,3.85
2022-11-21T09:02:29.851Z,3.00
2022-11-21T09:04:31.355Z,3.10
2022-11-21T09:06:33.010Z,2.58
2022-11-21T09:08:34.749Z,2.42
2022-11-21T09:10:36.394Z,2.63
2022-11-21T09:12:37.920Z,3.95
2022-11-21T09:14:58.600Z,2.90
2022-11-21T09:17:18.834Z,2.33
2022-11-21T09:19:21.137Z,3.10
2022-11-21T09:21:22.682Z,3.28
2022-11-21T09:23:24.317Z,3.25
2022-11-21T09:25:25.901Z,2.75
2022-11-21T09:27:27.530Z,3.88
2022-11-21T09:29:29.288Z,3.35
2022-11-21T09:31:31.190Z,3.03
2022-11-21T09:33:32.618Z,2.38
2022-11-21T09:35:34.174Z,2.65
2022-11-21T09:37:38.581Z,1.75
2022-11-21T09:39:40.150Z,1.90
2022-11-21T09:42:00.663Z,2.85
2022-11-21T09:44:11.637Z,1.90
2022-11-21T09:46:15.171Z,2.38
2022-11-21T09:48:22.720Z,1.88
2022-11-21T09:50:29.063Z,2.50
2022-11-21T09:52:47.011Z,2.20
2022-11-21T09:54:51.000Z,1.90
2022-11-21T09:56:53.263Z,2.47
2022-11-21T09:58:57.756Z,2.72
2022-11-21T10:00:59.396Z,2.95
2022-11-21T10:03:01.491Z,3.30
2022-11-21T10:05:02.940Z,2.97
2022-11-21T10:07:11.270Z,4.00
2022-11-21T10:09:33.106Z,3.55
2022-11-21T10:12:12.662Z,2.35
2022-11-21T10:14:32.406Z,4.40
2022-11-21T10:16:38.010Z,3.58
2022-11-21T10:19:06.954Z,3.05
2022-11-21T10:21:24.111Z,2.65
2022-11-21T10:23:27.331Z,3.35
2022-11-21T10:25:52.453Z,3.95
2022-11-21T10:27:57.550Z,4.35
2022-11-21T10:30:21.837Z,3.58
2022-11-21T10:32:29.669Z,3.05
2022-11-21T10:34:36.031Z,2.90
2022-11-21T10:36:40.827Z,3.20
2022-11-21T10:38:44.530Z,3.55
2022-11-21T10:40:52.724Z,2.60
2022-11-21T10:43:03.563Z,2.17
2022-11-21T10:45:21.696Z,2.30
2022-11-21T10:47:30.545Z,2.63
2022-11-21T10:49:35.936Z,2.72
2022-11-21T10:51:47.163Z,2.90
2022-11-21T10:54:21.858Z,2.38
2022-11-21T10:56:26.853Z,3.00
2022-11-21T10:58:51.280Z,1.95
2022-11-21T11:00:59.289Z,1.88
2022-11-21T11:03:06.863Z,2.13
2022-11-21T11:05:20.290Z,1.98
2022-11-21T11:07:24.783Z,1.95
2022-11-21T11:09:32.557Z,1.65
2022-11-21T11:11:34.308Z,2.50
2022-11-21T11:13:53.210Z,2.38
2022-11-21T11:15:58.843Z,2.47
2022-11-21T11:18:08.856Z,1.95
2022-11-21T11:20:34.463Z,2.05
2022-11-21T11:22:36.113Z,2.22
2022-11-21T11:24:43.912Z,2.58
2022-11-21T11:26:48.939Z,2.10
2022-11-21T11:28:51.046Z,2.17
2022-11-21T11:30:54.003Z,2.85
2022-11-21T11:32:56.104Z,2.20
2022-11-21T11:35:00.240Z,2.50
2022-11-21T11:39:10.687Z,3.47
2022-11-21T11:41:24.547Z,3.35
2022-11-21T11:44:03.693Z,3.42
2022-11-21T11:46:23.607Z,3.75
2022-11-21T11:48:25.337Z,2.72
2022-11-21T11:50:26.878Z,3.45
2022-11-21T11:52:30.115Z,2.88
2022-11-21T11:54:41.013Z,2.17
2022-11-21T11:56:42.623Z,3.42
2022-11-21T11:58:46.013Z,3.30
2022-11-21T12:00:52.967Z,3.80
2022-11-21T12:03:00.198Z,3.83
2022-11-21T12:05:09.030Z,3.72
2022-11-21T12:09:37.093Z,3.88
2022-11-21T12:12:07.111Z,3.17
2022-11-21T12:14:53.243Z,3.70
2022-11-21T12:16:54.819Z,3.15
2022-11-21T12:19:00.627Z,3.50
2022-11-21T12:21:14.387Z,2.92
2022-11-21T12:23:16.112Z,3.47
2022-11-21T12:25:18.442Z,3.75
2022-11-21T12:27:40.397Z,3.13
2022-11-21T12:29:48.108Z,2.28
2022-11-21T12:31:49.636Z,3.42
2022-11-21T12:34:18.209Z,2.22
2022-11-21T12:36:31.870Z,3.28
2022-11-21T12:38:39.403Z,2.50
2022-11-21T12:40:46.251Z,2.58
2022-11-21T12:45:01.411Z,2.67
2022-11-21T12:47:03.166Z,2.63
2022-11-21T12:49:55.072Z,2.67
2022-11-21T12:52:18.578Z,2.63
2022-11-21T12:54:33.317Z,3.58
2022-11-21T12:56:34.979Z,2.30
2022-11-21T12:58:41.801Z,3.00
2022-11-21T13:00:55.435Z,2.28
2022-11-21T13:03:22.105Z,2.30
2022-11-21T13:05:30.645Z,2.80
2022-11-21T13:07:32.855Z,2.78
2022-11-21T13:09:40.442Z,3.28
2022-11-21T13:12:01.443Z,2.08
2022-11-21T13:14:07.413Z,1.90
2022-11-21T13:16:10.442Z,3.15
2022-11-21T13:18:14.578Z,1.80
2022-11-21T13:20:21.544Z,2.47
2022-11-21T13:22:35.297Z,3.20
2022-11-21T13:24:47.283Z,2.47
2022-11-21T13:26:52.301Z,1.90
2022-11-21T13:29:29.779Z,2.08
2022-11-21T13:31:35.286Z,2.33
2022-11-21T13:33:45.210Z,1.40
2022-11-21T13:35:56.615Z,2.08
2022-11-21T13:38:21.820Z,1.50
2022-11-21T13:40:33.009Z,1.50
2022-11-21T13:43:30.846Z,1.27
2022-11-21T13:45:47.124Z,1.67
2022-11-21T13:48:20.667Z,1.33
2022-11-21T13:50:34.791Z,1.20
2022-11-21T13:52:39.289Z,1.10
2022-11-21T13:54:49.409Z,1.63
2022-11-21T13:57:15.850Z,1.65
2022-11-21T13:59:58.130Z,1.40
2022-11-21T14:02:14.586Z,1.10
2022-11-21T14:04:42.951Z,0.85
2022-11-21T14:06:57.200Z,0.90
2022-11-21T14:09:21.014Z,1.20
2022-11-21T14:11:44.107Z,1.08
2022-11-21T14:13:52.291Z,0.30
2022-11-21T14:16:06.608Z,0.70
2022-11-21T14:18:14.569Z,0.50
2022-11-21T14:20:16.308Z,0.60
2022-11-21T14:22:53.269Z,0.90
2022-11-21T14:24:55.195Z,1.08
2022-11-21T14:26:56.886Z,0.70
2022-11-21T14:29:18.333Z,1.20
2022-11-21T14:31:19.893Z,0.77
2022-11-21T14:33:25.638Z,0.60
2022-11-21T14:35:27.425Z,0.85
2022-11-21T14:37:29.301Z,0.60
2022-11-21T14:39:43.687Z,0.80
2022-11-21T14:41:49.751Z,1.15
2022-11-21T14:43:57.412Z,0.70
2022-11-21T14:45:59.358Z,0.90
2022-11-21T14:48:00.881Z,0.95
2022-11-21T14:50:07.096Z,1.05
2022-11-21T14:52:17.232Z,1.08
2022-11-21T14:54:20.070Z,1.40
2022-11-21T14:56:23.648Z,1.48
2022-11-21T14:58:25.293Z,1.52
2022-11-21T15:02:52.776Z,1.02
2022-11-21T15:04:57.933Z,1.33
2022-11-21T15:07:00.485Z,1.52
2022-11-21T15:10:05.755Z,1.95
2022-11-21T15:11:24.724Z,1.65
2022-11-21T15:13:45.123Z,1.00
2022-11-21T15:15:53.522Z,1.73
2022-11-21T15:18:25.848Z,1.92
2022-11-21T15:20:21.280Z,1.48
2022-11-21T15:22:33.066Z,1.92
2022-11-21T15:24:41.782Z,1.40
2022-11-21T15:26:43.463Z,1.33
2022-11-21T15:28:54.421Z,2.17
2022-11-21T15:31:16.067Z,1.45
2022-11-21T15:33:18.426Z,1.50
2022-11-21T15:35:32.172Z,1.95
2022-11-21T15:37:33.813Z,1.92
2022-11-21T15:39:36.132Z,2.10
2022-11-21T15:41:37.603Z,2.00
2022-11-21T15:43:39.313Z,1.90
2022-11-21T15:45:41.589Z,2.20
2022-11-21T15:47:43.813Z,2.17
2022-11-21T15:49:46.961Z,1.85
2022-11-21T15:52:06.507Z,1.75
2022-11-21T15:54:13.502Z,1.85
2022-11-21T15:56:21.475Z,1.52
2022-11-21T15:58:25.023Z,1.55
2022-11-21T16:00:27.355Z,1.08
2022-11-21T16:02:29.011Z,1.60
2022-11-21T16:04:31.244Z,1.30
2022-11-21T16:06:32.966Z,1.65
2022-11-21T16:08:37.299Z,1.75
2022-11-21T16:10:39.002Z,2.35
2022-11-21T16:12:41.259Z,1.25
2022-11-21T16:14:42.798Z,1.67
2022-11-21T16:16:44.561Z,1.30
2022-11-21T16:18:46.990Z,1.55
2022-11-21T16:20:49.286Z,1.85
2022-11-21T16:22:51.169Z,1.30
2022-11-21T16:24:52.766Z,1.45
2022-11-21T16:26:55.470Z,1.67
2022-11-21T16:28:57.702Z,1.35
2022-11-21T16:30:59.937Z,1.30
2022-11-21T16:33:02.118Z,1.20
2022-11-21T16:35:03.955Z,1.15
2022-11-21T16:37:09.374Z,1.70
2022-11-21T16:39:17.765Z,1.15
2022-11-21T16:41:24.264Z,1.85
2022-11-21T16:43:36.937Z,1.45
2022-11-21T16:45:57.703Z,1.52
2022-11-21T16:48:07.237Z,2.22
2022-11-21T16:50:17.565Z,1.67
2022-11-21T16:52:23.028Z,2.45
2022-11-21T16:54:26.497Z,1.35
2022-11-21T16:56:30.587Z,1.70
2022-11-21T16:58:52.547Z,1.83
2022-11-21T17:01:12.937Z,3.25
2022-11-21T17:03:19.805Z,1.55
2022-11-21T17:05:27.529Z,2.17
2022-11-21T17:07:37.498Z,2.05
2022-11-21T17:09:50.961Z,1.75
2022-11-21T17:11:58.051Z,1.75
2022-11-21T17:14:17.704Z,1.15
2022-11-21T17:16:35.114Z,1.83
2022-11-21T17:18:40.769Z,1.48
2022-11-21T17:20:42.636Z,1.08
2022-11-21T17:22:44.137Z,1.20
2022-11-21T17:24:47.165Z,0.80
2022-11-21T17:26:48.780Z,0.88
2022-11-21T17:29:00.190Z,1.13
2022-11-21T17:31:12.563Z,0.90
2022-11-21T17:33:14.473Z,0.70
2022-11-21T17:35:15.927Z,0.80
2022-11-21T17:37:17.358Z,1.55
2022-11-21T17:39:19.556Z,1.55
2022-11-21T17:41:21.831Z,1.30
2022-11-21T17:43:23.517Z,0.90
2022-11-21T17:45:24.986Z,0.77
2022-11-21T17:47:26.485Z,1.05
2022-11-21T17:49:30.486Z,0.73
2022-11-21T17:53:37.860Z,0.75
2022-11-21T17:55:39.495Z,0.80
2022-11-21T17:57:41.836Z,1.20
2022-11-21T17:59:45.172Z,1.15
2022-11-21T18:01:47.276Z,1.30
2022-11-21T18:03:53.509Z,1.10
2022-11-21T18:06:05.580Z,1.60
2022-11-21T18:08:07.242Z,1.50
2022-11-21T18:10:40.921Z,1.08
2022-11-21T18:12:57.049Z,1.20
2022-11-21T18:14:59.209Z,1.27
2022-11-21T18:17:00.710Z,1.92
2022-11-21T18:19:03.568Z,1.13
2022-11-21T18:21:07.744Z,0.90
2022-11-21T18:23:09.360Z,1.42
2022-11-21T18:25:11.121Z,1.17
2022-11-21T18:27:12.592Z,1.17
2022-11-21T18:31:36.420Z,1.05
2022-11-21T18:33:38.625Z,0.80
2022-11-21T18:35:41.259Z,0.68
2022-11-21T18:37:43.678Z,0.70
2022-11-21T18:39:45.403Z,1.10
2022-11-21T18:41:47.146Z,0.98
2022-11-21T18:43:49.846Z,0.82
2022-11-21T18:45:51.302Z,1.63
2022-11-21T18:47:53.045Z,1.13
2022-11-21T18:49:54.965Z,0.90
2022-11-21T18:51:57.816Z,1.00
2022-11-21T18:54:05.254Z,1.13
2022-11-21T18:56:08.529Z,1.02
2022-11-21T18:58:10.326Z,0.93
2022-11-21T19:00:12.236Z,0.75
2022-11-21T19:02:13.754Z,1.05
2022-11-21T19:04:15.235Z,0.85
2022-11-21T19:06:17.874Z,0.80
2022-11-21T19:08:19.395Z,0.70
2022-11-21T19:10:41.855Z,0.90
2022-11-21T19:12:42.745Z,0.82
2022-11-21T19:14:44.435Z,0.95
2022-11-21T19:16:45.943Z,0.70
2022-11-21T19:19:18.717Z,0.52
2022-11-21T19:21:13.149Z,0.43
2022-11-21T19:23:15.007Z,0.50
2022-11-21T19:25:16.501Z,0.50
2022-11-21T19:27:24.420Z,0.40
2022-11-21T19:29:25.907Z,0.73
2022-11-21T19:31:27.839Z,1.00
2022-11-21T19:33:30.453Z,0.43
2022-11-21T19:35:33.928Z,0.60
2022-11-21T19:37:36.924Z,0.65
2022-11-21T19:39:42.219Z,0.40
2022-11-21T19:41:52.625Z,0.50
2022-11-21T19:44:08.375Z,0.60
2022-11-21T19:46:33.503Z,0.50
2022-11-21T19:49:01.135Z,0.85
2022-11-21T19:51:27.888Z,0.65
2022-11-21T19:53:44.318Z,0.50
2022-11-21T19:56:03.035Z,0.70
2022-11-21T19:58:19.891Z,0.70
2022-11-21T20:00:34.461Z,0.50
2022-11-21T20:02:40.766Z,0.73
2022-11-21T20:04:45.316Z,0.65
2022-11-21T20:07:02.232Z,0.55
2022-11-21T20:09:20.595Z,0.77
2022-11-21T20:11:29.318Z,0.68
2022-11-21T20:13:51.177Z,0.40
2022-11-21T20:16:08.983Z,0.68
2022-11-21T20:18:28.904Z,0.95
2022-11-21T20:20:37.709Z,0.50
2022-11-21T20:22:53.721Z,0.68
2022-11-21T20:25:18.807Z,0.77
2022-11-21T20:27:54.443Z,0.35
2022-11-21T20:30:14.604Z,0.80
2022-11-21T20:32:26.818Z,0.55
2022-11-21T20:34:31.164Z,0.50
2022-11-21T20:36:34.801Z,0.40
2022-11-21T20:38:37.185Z,0.60
2022-11-21T20:40:38.713Z,0.80
2022-11-21T20:42:41.406Z,0.60
2022-11-21T20:46:01.027Z,0.63
2022-11-21T20:47:06.788Z,0.60
2022-11-21T20:49:08.649Z,0.63
2022-11-21T20:56:00.366Z,1.55
2022-11-21T20:58:02.722Z,0.57
2022-11-21T21:00:06.667Z,0.47
2022-11-21T21:02:13.994Z,0.40
2022-11-21T21:04:16.882Z,0.60
2022-11-21T21:06:19.380Z,0.52
2022-11-21T21:08:20.864Z,1.10
2022-11-21T21:10:25.400Z,0.75
2022-11-21T21:12:27.684Z,0.70
2022-11-21T21:14:29.183Z,0.50
2022-11-21T21:16:34.245Z,0.50
2022-11-21T21:18:36.065Z,0.63
2022-11-21T21:21:01.741Z,0.40
2022-11-21T21:23:01.037Z,0.60
2022-11-21T21:25:02.848Z,0.63
2022-11-21T21:27:04.829Z,0.70
2022-11-21T21:29:08.124Z,0.80
2022-11-21T21:31:29.165Z,0.60
2022-11-21T21:33:30.762Z,0.60
2022-11-21T21:35:35.772Z,0.65
2022-11-21T21:39:41.789Z,0.60
2022-11-21T21:41:47.235Z,0.60
2022-11-21T21:43:50.138Z,0.57
2022-11-21T21:45:51.806Z,0.60
2022-11-21T21:47:54.573Z,0.40
2022-11-21T21:49:56.146Z,0.30
2022-11-21T21:51:57.667Z,0.30
2022-11-21T21:53:59.767Z,0.75
2022-11-21T21:56:01.657Z,0.65
2022-11-21T21:58:03.685Z,0.50
2022-11-21T22:00:06.916Z,0.50
2022-11-21T22:02:10.994Z,0.45
2022-11-21T22:06:15.931Z,0.40
2022-11-21T22:08:17.571Z,0.50
2022-11-21T22:10:19.739Z,0.65
2022-11-21T22:12:21.813Z,0.60
2022-11-21T22:14:23.341Z,0.55
2022-11-21T22:16:25.240Z,0.60
2022-11-21T22:18:26.852Z,0.60
2022-11-21T22:20:28.626Z,0.30
2022-11-21T22:22:31.091Z,0.40
2022-11-21T22:24:32.757Z,0.50
2022-11-21T22:26:34.263Z,0.65
2022-11-21T22:28:36.277Z,0.30
2022-11-21T22:30:37.750Z,0.50
2022-11-21T22:32:39.758Z,0.40
2022-11-21T22:34:41.314Z,0.50
2022-11-21T22:36:46.780Z,0.32
2022-11-21T22:38:48.490Z,0.50
2022-11-21T22:40:50.050Z,0.70
2022-11-21T22:42:52.322Z,0.60
2022-11-21T22:44:53.726Z,0.50
2022-11-21T22:46:55.242Z,0.38
2022-11-21T22:48:56.768Z,0.55
2022-11-21T22:51:11.377Z,0.98
2022-11-21T22:53:42.848Z,0.40
2022-11-21T22:56:09.820Z,0.47
2022-11-21T22:58:24.925Z,0.30
2022-11-21T23:00:36.478Z,0.50
2022-11-21T23:03:01.877Z,0.70
2022-11-21T23:05:05.542Z,0.52
2022-11-21T23:07:21.418Z,0.57
2022-11-21T23:09:43.040Z,0.50
2022-11-21T23:12:02.512Z,0.60
2022-11-21T23:14:17.393Z,1.10
2022-11-21T23:18:43.052Z,0.60
2022-11-21T23:21:04.466Z,0.55
2022-11-21T23:23:28.579Z,0.50
2022-11-21T23:25:30.221Z,0.50
2022-11-21T23:27:31.642Z,0.40
2022-11-21T23:29:33.134Z,0.43
2022-11-21T23:31:34.960Z,0.65
2022-11-21T23:33:36.476Z,0.50
2022-11-21T23:35:38.110Z,0.40
2022-11-21T23:37:39.560Z,0.30
2022-11-21T23:39:40.983Z,0.55
2022-11-21T23:41:42.505Z,0.40
2022-11-21T23:43:44.301Z,0.40
2022-11-21T23:45:50.230Z,0.25
2022-11-21T23:47:51.668Z,0.20
2022-11-21T23:49:53.139Z,0.32
2022-11-21T23:51:54.814Z,0.43
2022-11-21T23:53:56.342Z,0.40
2022-11-21T23:55:57.873Z,0.30
2022-11-21T23:57:59.560Z,0.30
